createdAt,value
2023-02-27T00:06:53.344Z,-0.20
2023-02-27T00:13:53.703Z,-0.20
2023-02-27T00:20:54.500Z,-0.30
2023-02-27T00:27:56.704Z,-0.30
2023-02-27T00:34:57.026Z,-0.30
2023-02-27T00:41:57.496Z,-0.40
2023-02-27T00:48:58.545Z,-0.40
2023-02-27T00:55:59.044Z,-0.50
2023-02-27T01:02:59.417Z,-0.50
2023-02-27T01:10:00.671Z,-0.60
2023-02-27T01:17:01.058Z,-0.60
2023-02-27T01:24:01.685Z,-0.60
2023-02-27T01:31:02.197Z,-0.70
2023-02-27T01:38:02.391Z,-0.80
2023-02-27T01:45:28.432Z,-0.80
2023-02-27T01:52:30.922Z,-0.90
2023-02-27T01:59:31.212Z,-0.90
2023-02-27T02:06:35.351Z,-1.00
2023-02-27T02:13:38.111Z,-1.00
2023-02-27T02:21:08.041Z,-1.00
2023-02-27T02:28:14.095Z,-1.00
2023-02-27T02:35:38.952Z,-1.00
2023-02-27T02:42:39.188Z,-1.10
2023-02-27T02:49:52.965Z,-1.10
2023-02-27T02:57:11.427Z,-1.10
2023-02-27T03:04:21.477Z,-1.20
2023-02-27T03:11:26.753Z,-1.30
2023-02-27T03:18:40.419Z,-1.50
2023-02-27T03:25:46.115Z,-1.70
2023-02-27T03:33:00.333Z,-1.80
2023-02-27T03:40:06.419Z,-1.90
2023-02-27T03:47:07.014Z,-2.00
2023-02-27T03:54:21.400Z,-2.20
2023-02-27T04:01:21.817Z,-2.20
2023-02-27T04:09:04.657Z,-2.30
2023-02-27T04:16:39.550Z,-2.50
2023-02-27T04:24:04.742Z,-2.40
2023-02-27T04:31:30.903Z,-2.50
2023-02-27T04:38:46.244Z,-2.60
2023-02-27T04:45:49.006Z,-2.60
2023-02-27T04:53:03.511Z,-2.80
2023-02-27T05:00:09.304Z,-2.80
2023-02-27T05:07:14.998Z,-2.80
2023-02-27T05:14:25.907Z,-2.80
2023-02-27T05:21:55.781Z,-2.80
2023-02-27T05:29:08.622Z,-2.80
2023-02-27T05:36:27.372Z,-2.90
2023-02-27T05:43:41.447Z,-3.00
2023-02-27T05:50:43.665Z,-2.90
2023-02-27T05:57:50.583Z,-3.00
2023-02-27T06:04:51.316Z,-3.00
2023-02-27T06:11:51.615Z,-3.00
2023-02-27T06:18:51.906Z,-3.00
2023-02-27T06:25:52.324Z,-3.00
2023-02-27T06:32:52.797Z,-3.10
2023-02-27T06:39:53.256Z,-3.10
2023-02-27T06:46:53.859Z,-3.20
2023-02-27T06:53:54.140Z,-3.20
2023-02-27T07:00:54.503Z,-3.20
2023-02-27T07:07:54.766Z,-3.10
2023-02-27T07:14:55.058Z,-3.00
2023-02-27T07:21:55.483Z,-2.90
2023-02-27T07:28:55.992Z,-2.80
2023-02-27T07:35:56.366Z,-2.60
2023-02-27T07:42:56.876Z,-2.40
2023-02-27T07:49:57.375Z,-2.20
2023-02-27T07:56:57.752Z,-2.00
2023-02-27T08:03:58.186Z,-1.70
2023-02-27T08:10:58.572Z,-1.50
2023-02-27T08:17:58.863Z,-1.30
2023-02-27T08:24:59.244Z,-1.00
2023-02-27T08:32:00.816Z,-0.70
2023-02-27T08:39:01.015Z,-0.50
2023-02-27T08:46:01.462Z,-0.30
2023-02-27T08:53:01.792Z,0.00
2023-02-27T09:00:06.065Z,0.10
2023-02-27T09:07:06.414Z,0.30
2023-02-27T09:14:06.991Z,0.60
2023-02-27T09:21:07.459Z,0.80
2023-02-27T09:28:08.338Z,0.90
2023-02-27T09:35:09.365Z,1.10
2023-02-27T09:42:22.822Z,1.30
2023-02-27T09:49:27.980Z,1.50
2023-02-27T09:56:57.601Z,1.70
2023-02-27T10:04:08.413Z,2.00
2023-02-27T10:11:15.731Z,2.20
2023-02-27T10:18:48.221Z,2.50
2023-02-27T10:25:51.394Z,2.80
2023-02-27T10:33:13.561Z,3.10
2023-02-27T10:40:15.986Z,3.30
2023-02-27T10:47:16.466Z,3.50
2023-02-27T10:54:19.487Z,3.70
2023-02-27T11:01:20.458Z,3.90
2023-02-27T11:08:24.955Z,4.10
2023-02-27T11:15:29.205Z,4.20
2023-02-27T11:22:31.312Z,4.20
2023-02-27T11:29:34.292Z,4.40
2023-02-27T11:36:46.080Z,4.50
2023-02-27T11:43:52.293Z,4.70
2023-02-27T11:51:40.832Z,4.90
2023-02-27T11:59:04.367Z,5.10
2023-02-27T12:06:13.073Z,5.30
2023-02-27T12:13:30.119Z,5.50
2023-02-27T12:20:54.975Z,5.60
2023-02-27T12:28:08.778Z,5.80
2023-02-27T12:35:27.676Z,5.80
2023-02-27T12:43:00.166Z,5.80
2023-02-27T12:50:06.578Z,6.10
2023-02-27T12:57:28.061Z,6.30
2023-02-27T13:04:33.495Z,5.90
2023-02-27T13:11:45.992Z,6.10
2023-02-27T13:19:09.608Z,6.40
2023-02-27T13:26:20.649Z,6.70
2023-02-27T13:33:58.646Z,7.20
2023-02-27T13:41:24.941Z,7.20
2023-02-27T13:48:34.019Z,7.30
2023-02-27T13:55:35.306Z,7.30
2023-02-27T14:03:00.314Z,7.00
2023-02-27T14:10:11.643Z,7.40
2023-02-27T14:17:33.775Z,7.50
2023-02-27T14:24:49.579Z,7.40
2023-02-27T14:31:59.957Z,7.70
2023-02-27T14:39:02.157Z,8.10
2023-02-27T14:46:21.108Z,9.30
2023-02-27T14:53:27.509Z,10.70
2023-02-27T15:00:33.679Z,11.60
2023-02-27T15:07:35.267Z,12.00
2023-02-27T15:14:39.908Z,13.00
2023-02-27T15:22:02.895Z,14.00
2023-02-27T15:29:08.015Z,14.10
2023-02-27T15:36:08.270Z,13.50
2023-02-27T15:43:09.516Z,12.10
2023-02-27T15:50:36.186Z,10.20
2023-02-27T15:57:36.880Z,9.00
2023-02-27T16:04:37.117Z,7.90
2023-02-27T16:11:37.563Z,7.20
2023-02-27T16:18:47.194Z,6.80
2023-02-27T16:26:08.899Z,6.40
2023-02-27T16:33:20.886Z,6.00
2023-02-27T16:40:27.590Z,5.70
2023-02-27T16:47:28.820Z,5.50
2023-02-27T16:54:29.436Z,5.30
2023-02-27T17:01:30.607Z,5.10
2023-02-27T17:08:32.639Z,5.00
2023-02-27T17:15:32.897Z,4.80
2023-02-27T17:22:42.150Z,4.70
2023-02-27T17:29:42.520Z,4.50
2023-02-27T17:36:43.286Z,4.40
2023-02-27T17:43:43.727Z,4.30
2023-02-27T17:50:45.064Z,4.10
2023-02-27T17:57:45.238Z,4.00
2023-02-27T18:04:45.676Z,3.80
2023-02-27T18:11:46.270Z,3.70
2023-02-27T18:18:46.724Z,3.60
2023-02-27T18:25:54.160Z,3.50
2023-02-27T18:32:58.679Z,3.50
2023-02-27T18:40:00.334Z,3.50
2023-02-27T18:47:00.667Z,3.40
2023-02-27T18:54:01.393Z,3.40
2023-02-27T19:01:03.962Z,3.30
2023-02-27T19:08:04.458Z,3.20
2023-02-27T19:15:05.571Z,3.20
2023-02-27T19:22:06.036Z,3.20
2023-02-27T19:29:07.182Z,3.20
2023-02-27T19:36:10.940Z,3.20
2023-02-27T19:43:15.042Z,3.20
2023-02-27T19:50:16.176Z,3.10
2023-02-27T19:57:17.400Z,3.10
2023-02-27T20:04:19.116Z,3.00
2023-02-27T20:11:21.509Z,2.80
2023-02-27T20:18:21.803Z,2.80
2023-02-27T20:25:22.396Z,2.70
2023-02-27T20:32:24.118Z,2.60
2023-02-27T20:39:25.006Z,2.50
2023-02-27T20:46:28.405Z,2.50
2023-02-27T20:53:28.486Z,2.30
2023-02-27T21:00:28.974Z,2.20
2023-02-27T21:07:29.315Z,2.20
2023-02-27T21:14:29.684Z,2.20
2023-02-27T21:21:34.879Z,2.10
2023-02-27T21:28:41.990Z,2.00
2023-02-27T21:35:46.813Z,1.90
2023-02-27T21:42:48.244Z,1.80
2023-02-27T21:49:48.583Z,1.70
2023-02-27T21:56:49.728Z,1.60
2023-02-27T22:03:52.348Z,1.60
2023-02-27T22:10:59.466Z,1.50
2023-02-27T22:17:59.503Z,1.40
2023-02-27T22:25:00.025Z,1.30
2023-02-27T22:32:00.462Z,1.20
2023-02-27T22:39:01.863Z,1.10
2023-02-27T22:46:02.384Z,1.10
2023-02-27T22:53:02.587Z,1.00
2023-02-27T23:00:06.053Z,0.90
2023-02-27T23:07:06.556Z,0.80
2023-02-27T23:14:07.087Z,0.60
2023-02-27T23:21:07.896Z,0.60
2023-02-27T23:28:08.148Z,0.50
2023-02-27T23:35:11.319Z,0.40
2023-02-27T23:42:12.776Z,0.40
2023-02-27T23:49:12.922Z,0.30
2023-02-27T23:56:18.666Z,0.20
